sensor_id;sensor_type;location;lat;lon;timestamp;P1;durP1;ratioP1;P2;durP2;ratioP2
25249;SDS011;13201;51.148;13.738;2022-12-07T00:04:06;8.27;;;4.50;;
25249;SDS011;13201;51.148;13.738;2022-12-07T00:06:36;9.63;;;4.53;;
25249;SDS011;13201;51.148;13.738;2022-12-07T00:09:10;10.43;;;4.60;;
25249;SDS011;13201;51.148;13.738;2022-12-07T00:11:37;12.57;;;4.82;;
25249;SDS011;13201;51.148;13.738;2022-12-07T00:14:04;11.40;;;4.65;;
25249;SDS011;13201;51.148;13.738;2022-12-07T00:16:32;12.30;;;5.15;;
25249;SDS011;13201;51.148;13.738;2022-12-07T00:18:59;9.15;;;4.40;;
25249;SDS011;13201;51.148;13.738;2022-12-07T00:21:29;8.38;;;4.18;;
25249;SDS011;13201;51.148;13.738;2022-12-07T00:23:57;9.65;;;4.43;;
25249;SDS011;13201;51.148;13.738;2022-12-07T00:26:27;8.45;;;4.00;;
25249;SDS011;13201;51.148;13.738;2022-12-07T00:28:56;8.43;;;4.32;;
25249;SDS011;13201;51.148;13.738;2022-12-07T00:31:25;9.10;;;4.57;;
25249;SDS011;13201;51.148;13.738;2022-12-07T00:33:54;8.73;;;4.28;;
25249;SDS011;13201;51.148;13.738;2022-12-07T00:36:21;12.30;;;4.70;;
25249;SDS011;13201;51.148;13.738;2022-12-07T00:38:48;9.60;;;4.68;;
25249;SDS011;13201;51.148;13.738;2022-12-07T00:41:18;7.05;;;4.10;;
25249;SDS011;13201;51.148;13.738;2022-12-07T00:43:46;9.13;;;4.22;;
25249;SDS011;13201;51.148;13.738;2022-12-07T00:48:39;11.40;;;4.53;;
25249;SDS011;13201;51.148;13.738;2022-12-07T00:51:05;10.98;;;4.22;;
25249;SDS011;13201;51.148;13.738;2022-12-07T00:53:33;10.50;;;4.53;;
25249;SDS011;13201;51.148;13.738;2022-12-07T00:56:07;9.63;;;4.18;;
25249;SDS011;13201;51.148;13.738;2022-12-07T00:59:02;11.57;;;4.40;;
25249;SDS011;13201;51.148;13.738;2022-12-07T01:01:30;9.57;;;3.97;;
25249;SDS011;13201;51.148;13.738;2022-12-07T01:03:58;10.13;;;4.55;;
25249;SDS011;13201;51.148;13.738;2022-12-07T01:31:15;12.48;;;4.90;;
25249;SDS011;13201;51.148;13.738;2022-12-07T01:33:43;17.20;;;6.28;;
25249;SDS011;13201;51.148;13.738;2022-12-07T01:36:13;10.75;;;5.10;;
25249;SDS011;13201;51.148;13.738;2022-12-07T01:38:47;11.95;;;5.10;;
25249;SDS011;13201;51.148;13.738;2022-12-07T01:41:16;11.60;;;5.00;;
25249;SDS011;13201;51.148;13.738;2022-12-07T01:46:32;9.85;;;5.18;;
25249;SDS011;13201;51.148;13.738;2022-12-07T01:48:58;11.07;;;5.30;;
25249;SDS011;13201;51.148;13.738;2022-12-07T01:51:24;11.65;;;4.90;;
25249;SDS011;13201;51.148;13.738;2022-12-07T01:53:51;10.50;;;4.15;;
25249;SDS011;13201;51.148;13.738;2022-12-07T01:56:18;10.27;;;4.70;;
25249;SDS011;13201;51.148;13.738;2022-12-07T01:58:47;7.82;;;4.10;;
25249;SDS011;13201;51.148;13.738;2022-12-07T02:01:14;12.02;;;5.10;;
25249;SDS011;13201;51.148;13.738;2022-12-07T02:03:40;9.38;;;4.38;;
25249;SDS011;13201;51.148;13.738;2022-12-07T02:06:07;8.93;;;4.60;;
25249;SDS011;13201;51.148;13.738;2022-12-07T02:11:02;9.27;;;4.00;;
25249;SDS011;13201;51.148;13.738;2022-12-07T02:13:32;8.70;;;4.30;;
25249;SDS011;13201;51.148;13.738;2022-12-07T02:16:12;10.68;;;4.32;;
25249;SDS011;13201;51.148;13.738;2022-12-07T02:18:48;9.50;;;4.15;;
25249;SDS011;13201;51.148;13.738;2022-12-07T02:22:18;10.40;;;4.50;;
25249;SDS011;13201;51.148;13.738;2022-12-07T02:30:15;6.70;;;3.78;;
25249;SDS011;13201;51.148;13.738;2022-12-07T02:43:04;7.25;;;3.55;;
25249;SDS011;13201;51.148;13.738;2022-12-07T02:45:49;5.65;;;3.78;;
25249;SDS011;13201;51.148;13.738;2022-12-07T02:48:18;8.23;;;4.20;;
25249;SDS011;13201;51.148;13.738;2022-12-07T02:50:49;6.00;;;3.25;;
25249;SDS011;13201;51.148;13.738;2022-12-07T02:53:32;7.15;;;3.33;;
25249;SDS011;13201;51.148;13.738;2022-12-07T03:10:28;7.97;;;3.90;;
25249;SDS011;13201;51.148;13.738;2022-12-07T03:16:05;7.20;;;3.70;;
25249;SDS011;13201;51.148;13.738;2022-12-07T03:18:35;6.82;;;3.72;;
25249;SDS011;13201;51.148;13.738;2022-12-07T03:21:06;6.72;;;3.50;;
25249;SDS011;13201;51.148;13.738;2022-12-07T03:23:37;8.23;;;4.20;;
25249;SDS011;13201;51.148;13.738;2022-12-07T03:26:05;7.60;;;3.92;;
25249;SDS011;13201;51.148;13.738;2022-12-07T03:28:37;8.95;;;3.80;;
25249;SDS011;13201;51.148;13.738;2022-12-07T03:31:22;7.53;;;3.63;;
25249;SDS011;13201;51.148;13.738;2022-12-07T03:34:38;7.57;;;4.07;;
25249;SDS011;13201;51.148;13.738;2022-12-07T03:36:49;9.80;;;4.00;;
25249;SDS011;13201;51.148;13.738;2022-12-07T03:42:01;8.82;;;3.92;;
25249;SDS011;13201;51.148;13.738;2022-12-07T03:44:30;9.50;;;4.13;;
25249;SDS011;13201;51.148;13.738;2022-12-07T03:52:18;8.27;;;4.03;;
25249;SDS011;13201;51.148;13.738;2022-12-07T03:55:09;8.35;;;4.43;;
25249;SDS011;13201;51.148;13.738;2022-12-07T03:57:36;9.18;;;4.70;;
25249;SDS011;13201;51.148;13.738;2022-12-07T04:00:04;8.85;;;4.50;;
25249;SDS011;13201;51.148;13.738;2022-12-07T04:02:32;8.90;;;4.43;;
25249;SDS011;13201;51.148;13.738;2022-12-07T04:04:58;10.25;;;4.38;;
25249;SDS011;13201;51.148;13.738;2022-12-07T04:07:24;9.82;;;4.85;;
25249;SDS011;13201;51.148;13.738;2022-12-07T04:09:50;9.73;;;4.77;;
25249;SDS011;13201;51.148;13.738;2022-12-07T04:12:15;8.40;;;4.20;;
25249;SDS011;13201;51.148;13.738;2022-12-07T04:14:41;9.18;;;4.75;;
25249;SDS011;13201;51.148;13.738;2022-12-07T04:17:08;10.07;;;4.68;;
25249;SDS011;13201;51.148;13.738;2022-12-07T04:19:34;8.68;;;4.18;;
25249;SDS011;13201;51.148;13.738;2022-12-07T04:22:00;11.55;;;5.43;;
25249;SDS011;13201;51.148;13.738;2022-12-07T04:26:53;9.07;;;4.27;;
25249;SDS011;13201;51.148;13.738;2022-12-07T04:29:19;8.60;;;4.27;;
25249;SDS011;13201;51.148;13.738;2022-12-07T04:31:45;9.32;;;4.35;;
25249;SDS011;13201;51.148;13.738;2022-12-07T04:34:11;9.20;;;4.20;;
25249;SDS011;13201;51.148;13.738;2022-12-07T04:36:38;10.88;;;4.85;;
25249;SDS011;13201;51.148;13.738;2022-12-07T04:41:31;11.30;;;4.25;;
25249;SDS011;13201;51.148;13.738;2022-12-07T04:43:57;10.30;;;4.88;;
25249;SDS011;13201;51.148;13.738;2022-12-07T04:46:25;7.35;;;4.05;;
25249;SDS011;13201;51.148;13.738;2022-12-07T04:48:52;8.45;;;4.00;;
25249;SDS011;13201;51.148;13.738;2022-12-07T04:51:19;8.20;;;4.03;;
25249;SDS011;13201;51.148;13.738;2022-12-07T04:53:46;9.27;;;4.35;;
25249;SDS011;13201;51.148;13.738;2022-12-07T04:56:13;7.35;;;3.78;;
25249;SDS011;13201;51.148;13.738;2022-12-07T04:58:40;9.35;;;4.07;;
25249;SDS011;13201;51.148;13.738;2022-12-07T05:01:07;9.88;;;4.63;;
25249;SDS011;13201;51.148;13.738;2022-12-07T05:03:32;7.03;;;3.80;;
25249;SDS011;13201;51.148;13.738;2022-12-07T05:05:58;7.70;;;3.75;;
25249;SDS011;13201;51.148;13.738;2022-12-07T05:08:24;9.20;;;4.07;;
25249;SDS011;13201;51.148;13.738;2022-12-07T05:10:49;8.93;;;3.78;;
25249;SDS011;13201;51.148;13.738;2022-12-07T05:13:15;12.65;;;4.72;;
25249;SDS011;13201;51.148;13.738;2022-12-07T05:15:41;6.47;;;3.40;;
25249;SDS011;13201;51.148;13.738;2022-12-07T05:18:08;7.03;;;4.07;;
25249;SDS011;13201;51.148;13.738;2022-12-07T05:20:36;9.23;;;4.05;;
25249;SDS011;13201;51.148;13.738;2022-12-07T05:23:02;7.78;;;3.92;;
25249;SDS011;13201;51.148;13.738;2022-12-07T05:25:28;7.90;;;3.50;;
25249;SDS011;13201;51.148;13.738;2022-12-07T05:27:54;8.80;;;3.55;;
25249;SDS011;13201;51.148;13.738;2022-12-07T05:30:21;5.10;;;3.03;;
25249;SDS011;13201;51.148;13.738;2022-12-07T05:32:47;8.73;;;3.38;;
25249;SDS011;13201;51.148;13.738;2022-12-07T05:35:13;6.72;;;2.85;;
25249;SDS011;13201;51.148;13.738;2022-12-07T05:37:39;7.57;;;3.30;;
25249;SDS011;13201;51.148;13.738;2022-12-07T05:40:05;5.15;;;2.92;;
25249;SDS011;13201;51.148;13.738;2022-12-07T05:42:31;7.43;;;3.38;;
25249;SDS011;13201;51.148;13.738;2022-12-07T05:44:56;7.70;;;3.28;;
25249;SDS011;13201;51.148;13.738;2022-12-07T05:47:22;6.05;;;3.25;;
25249;SDS011;13201;51.148;13.738;2022-12-07T05:49:48;6.38;;;3.60;;
25249;SDS011;13201;51.148;13.738;2022-12-07T05:52:13;7.63;;;3.30;;
25249;SDS011;13201;51.148;13.738;2022-12-07T05:54:39;6.50;;;2.33;;
25249;SDS011;13201;51.148;13.738;2022-12-07T05:57:05;5.40;;;2.95;;
25249;SDS011;13201;51.148;13.738;2022-12-07T05:59:30;5.45;;;3.00;;
25249;SDS011;13201;51.148;13.738;2022-12-07T06:02:01;7.32;;;3.00;;
25249;SDS011;13201;51.148;13.738;2022-12-07T06:04:32;5.88;;;2.47;;
25249;SDS011;13201;51.148;13.738;2022-12-07T06:06:59;5.78;;;2.58;;
25249;SDS011;13201;51.148;13.738;2022-12-07T06:09:26;3.75;;;2.08;;
25249;SDS011;13201;51.148;13.738;2022-12-07T06:11:52;4.63;;;2.40;;
25249;SDS011;13201;51.148;13.738;2022-12-07T06:14:36;5.25;;;2.42;;
25249;SDS011;13201;51.148;13.738;2022-12-07T06:17:02;4.73;;;2.60;;
25249;SDS011;13201;51.148;13.738;2022-12-07T06:19:29;4.72;;;2.40;;
25249;SDS011;13201;51.148;13.738;2022-12-07T06:21:54;3.90;;;2.13;;
25249;SDS011;13201;51.148;13.738;2022-12-07T06:24:21;4.25;;;2.40;;
25249;SDS011;13201;51.148;13.738;2022-12-07T06:26:46;3.65;;;2.28;;
25249;SDS011;13201;51.148;13.738;2022-12-07T06:29:12;3.45;;;2.38;;
25249;SDS011;13201;51.148;13.738;2022-12-07T06:31:39;3.58;;;2.13;;
25249;SDS011;13201;51.148;13.738;2022-12-07T06:34:06;5.73;;;2.80;;
25249;SDS011;13201;51.148;13.738;2022-12-07T06:36:35;4.10;;;2.30;;
25249;SDS011;13201;51.148;13.738;2022-12-07T06:39:02;3.67;;;2.25;;
25249;SDS011;13201;51.148;13.738;2022-12-07T06:41:27;5.13;;;2.77;;
25249;SDS011;13201;51.148;13.738;2022-12-07T06:43:53;2.28;;;1.38;;
25249;SDS011;13201;51.148;13.738;2022-12-07T06:46:19;3.13;;;2.35;;
25249;SDS011;13201;51.148;13.738;2022-12-07T06:48:45;4.32;;;2.20;;
25249;SDS011;13201;51.148;13.738;2022-12-07T06:51:10;3.55;;;2.25;;
25249;SDS011;13201;51.148;13.738;2022-12-07T06:53:36;6.22;;;2.20;;
25249;SDS011;13201;51.148;13.738;2022-12-07T06:56:03;3.67;;;2.27;;
25249;SDS011;13201;51.148;13.738;2022-12-07T06:58:29;4.68;;;2.55;;
25249;SDS011;13201;51.148;13.738;2022-12-07T07:00:55;4.32;;;2.30;;
25249;SDS011;13201;51.148;13.738;2022-12-07T07:03:20;4.60;;;2.38;;
25249;SDS011;13201;51.148;13.738;2022-12-07T07:05:46;4.25;;;2.40;;
25249;SDS011;13201;51.148;13.738;2022-12-07T07:08:12;6.05;;;2.65;;
25249;SDS011;13201;51.148;13.738;2022-12-07T07:10:38;2.60;;;2.00;;
25249;SDS011;13201;51.148;13.738;2022-12-07T07:13:04;5.67;;;2.20;;
25249;SDS011;13201;51.148;13.738;2022-12-07T07:15:30;3.50;;;2.27;;
25249;SDS011;13201;51.148;13.738;2022-12-07T07:17:56;5.13;;;2.60;;
25249;SDS011;13201;51.148;13.738;2022-12-07T07:20:22;3.75;;;2.00;;
25249;SDS011;13201;51.148;13.738;2022-12-07T07:22:48;3.88;;;2.20;;
25249;SDS011;13201;51.148;13.738;2022-12-07T07:25:14;3.42;;;2.08;;
25249;SDS011;13201;51.148;13.738;2022-12-07T07:27:40;3.95;;;2.33;;
25249;SDS011;13201;51.148;13.738;2022-12-07T07:30:06;3.35;;;2.00;;
25249;SDS011;13201;51.148;13.738;2022-12-07T07:32:33;3.67;;;2.10;;
25249;SDS011;13201;51.148;13.738;2022-12-07T07:34:59;4.00;;;1.98;;
25249;SDS011;13201;51.148;13.738;2022-12-07T07:37:25;4.20;;;2.05;;
25249;SDS011;13201;51.148;13.738;2022-12-07T07:39:51;3.88;;;2.25;;
25249;SDS011;13201;51.148;13.738;2022-12-07T07:42:16;2.95;;;1.90;;
25249;SDS011;13201;51.148;13.738;2022-12-07T07:44:42;3.83;;;2.40;;
25249;SDS011;13201;51.148;13.738;2022-12-07T07:47:08;3.15;;;2.25;;
25249;SDS011;13201;51.148;13.738;2022-12-07T07:49:34;5.00;;;2.45;;
25249;SDS011;13201;51.148;13.738;2022-12-07T07:51:59;5.57;;;2.42;;
25249;SDS011;13201;51.148;13.738;2022-12-07T07:54:25;3.55;;;2.13;;
25249;SDS011;13201;51.148;13.738;2022-12-07T07:56:51;4.40;;;2.13;;
25249;SDS011;13201;51.148;13.738;2022-12-07T07:59:17;3.30;;;2.13;;
25249;SDS011;13201;51.148;13.738;2022-12-07T08:01:43;5.10;;;2.30;;
25249;SDS011;13201;51.148;13.738;2022-12-07T08:04:09;4.80;;;2.33;;
25249;SDS011;13201;51.148;13.738;2022-12-07T08:06:35;4.47;;;2.55;;
25249;SDS011;13201;51.148;13.738;2022-12-07T08:09:00;3.88;;;2.35;;
25249;SDS011;13201;51.148;13.738;2022-12-07T08:11:27;6.00;;;3.00;;
25249;SDS011;13201;51.148;13.738;2022-12-07T08:13:52;5.28;;;3.00;;
25249;SDS011;13201;51.148;13.738;2022-12-07T08:16:18;5.82;;;2.95;;
25249;SDS011;13201;51.148;13.738;2022-12-07T08:18:44;5.57;;;3.45;;
25249;SDS011;13201;51.148;13.738;2022-12-07T08:21:11;6.45;;;3.50;;
25249;SDS011;13201;51.148;13.738;2022-12-07T08:23:37;6.05;;;3.15;;
25249;SDS011;13201;51.148;13.738;2022-12-07T08:26:04;4.80;;;3.20;;
25249;SDS011;13201;51.148;13.738;2022-12-07T08:28:31;7.03;;;3.47;;
25249;SDS011;13201;51.148;13.738;2022-12-07T08:31:04;6.63;;;3.20;;
25249;SDS011;13201;51.148;13.738;2022-12-07T08:33:31;5.30;;;3.10;;
25249;SDS011;13201;51.148;13.738;2022-12-07T08:36:01;6.37;;;3.17;;
25249;SDS011;13201;51.148;13.738;2022-12-07T08:38:30;7.60;;;3.10;;
25249;SDS011;13201;51.148;13.738;2022-12-07T08:40:57;7.10;;;3.60;;
25249;SDS011;13201;51.148;13.738;2022-12-07T08:49:08;6.20;;;3.23;;
25249;SDS011;13201;51.148;13.738;2022-12-07T08:51:34;6.18;;;3.25;;
25249;SDS011;13201;51.148;13.738;2022-12-07T08:54:01;7.45;;;3.67;;
25249;SDS011;13201;51.148;13.738;2022-12-07T08:56:30;7.03;;;3.53;;
25249;SDS011;13201;51.148;13.738;2022-12-07T08:58:57;6.05;;;3.25;;
25249;SDS011;13201;51.148;13.738;2022-12-07T09:01:23;8.15;;;3.90;;
25249;SDS011;13201;51.148;13.738;2022-12-07T09:03:48;7.03;;;3.60;;
25249;SDS011;13201;51.148;13.738;2022-12-07T09:06:14;5.95;;;3.38;;
25249;SDS011;13201;51.148;13.738;2022-12-07T09:08:41;5.70;;;3.72;;
25249;SDS011;13201;51.148;13.738;2022-12-07T09:11:09;5.88;;;3.45;;
25249;SDS011;13201;51.148;13.738;2022-12-07T09:13:34;6.85;;;3.60;;
25249;SDS011;13201;51.148;13.738;2022-12-07T09:16:00;5.90;;;3.28;;
25249;SDS011;13201;51.148;13.738;2022-12-07T09:18:26;6.38;;;3.60;;
25249;SDS011;13201;51.148;13.738;2022-12-07T09:20:51;9.05;;;3.67;;
25249;SDS011;13201;51.148;13.738;2022-12-07T09:23:17;5.95;;;3.65;;
25249;SDS011;13201;51.148;13.738;2022-12-07T09:25:43;6.88;;;3.70;;
25249;SDS011;13201;51.148;13.738;2022-12-07T09:28:08;6.47;;;3.30;;
25249;SDS011;13201;51.148;13.738;2022-12-07T09:30:34;7.13;;;3.40;;
25249;SDS011;13201;51.148;13.738;2022-12-07T09:33:00;7.10;;;3.28;;
25249;SDS011;13201;51.148;13.738;2022-12-07T09:35:26;7.03;;;3.53;;
25249;SDS011;13201;51.148;13.738;2022-12-07T09:37:52;7.40;;;3.37;;
25249;SDS011;13201;51.148;13.738;2022-12-07T09:40:19;5.35;;;2.92;;
25249;SDS011;13201;51.148;13.738;2022-12-07T09:42:49;8.27;;;3.72;;
25249;SDS011;13201;51.148;13.738;2022-12-07T09:45:19;5.25;;;3.25;;
25249;SDS011;13201;51.148;13.738;2022-12-07T09:47:48;7.72;;;3.33;;
25249;SDS011;13201;51.148;13.738;2022-12-07T09:50:18;5.75;;;3.10;;
25249;SDS011;13201;51.148;13.738;2022-12-07T09:52:46;5.85;;;3.15;;
25249;SDS011;13201;51.148;13.738;2022-12-07T09:55:14;9.00;;;3.20;;
25249;SDS011;13201;51.148;13.738;2022-12-07T09:57:43;6.20;;;3.00;;
25249;SDS011;13201;51.148;13.738;2022-12-07T10:00:13;6.38;;;3.47;;
25249;SDS011;13201;51.148;13.738;2022-12-07T10:02:46;5.55;;;3.13;;
25249;SDS011;13201;51.148;13.738;2022-12-07T10:05:23;5.50;;;2.95;;
25249;SDS011;13201;51.148;13.738;2022-12-07T10:08:02;5.35;;;3.05;;
25249;SDS011;13201;51.148;13.738;2022-12-07T10:10:32;5.60;;;2.90;;
25249;SDS011;13201;51.148;13.738;2022-12-07T10:13:01;5.55;;;2.80;;
25249;SDS011;13201;51.148;13.738;2022-12-07T10:18:30;4.53;;;2.85;;
25249;SDS011;13201;51.148;13.738;2022-12-07T10:23:33;8.50;;;3.40;;
25249;SDS011;13201;51.148;13.738;2022-12-07T10:26:00;5.15;;;2.60;;
25249;SDS011;13201;51.148;13.738;2022-12-07T10:31:41;5.03;;;2.65;;
25249;SDS011;13201;51.148;13.738;2022-12-07T10:34:20;5.97;;;2.95;;
25249;SDS011;13201;51.148;13.738;2022-12-07T10:36:47;6.20;;;2.70;;
25249;SDS011;13201;51.148;13.738;2022-12-07T10:39:14;5.05;;;2.60;;
25249;SDS011;13201;51.148;13.738;2022-12-07T10:41:53;5.00;;;2.97;;
25249;SDS011;13201;51.148;13.738;2022-12-07T10:44:41;5.68;;;2.22;;
25249;SDS011;13201;51.148;13.738;2022-12-07T10:58:23;9.80;;;2.80;;
25249;SDS011;13201;51.148;13.738;2022-12-07T11:28:20;5.93;;;3.15;;
25249;SDS011;13201;51.148;13.738;2022-12-07T11:36:46;6.18;;;3.03;;
25249;SDS011;13201;51.148;13.738;2022-12-07T11:42:24;3.78;;;2.30;;
25249;SDS011;13201;51.148;13.738;2022-12-07T11:44:55;4.80;;;1.70;;
25249;SDS011;13201;51.148;13.738;2022-12-07T12:00:55;30.83;;;11.43;;
25249;SDS011;13201;51.148;13.738;2022-12-07T12:03:30;7.47;;;3.47;;
25249;SDS011;13201;51.148;13.738;2022-12-07T12:06:00;5.25;;;3.03;;
25249;SDS011;13201;51.148;13.738;2022-12-07T12:14:11;5.03;;;2.63;;
25249;SDS011;13201;51.148;13.738;2022-12-07T12:19:27;4.03;;;2.40;;
25249;SDS011;13201;51.148;13.738;2022-12-07T12:22:01;3.85;;;2.28;;
25249;SDS011;13201;51.148;13.738;2022-12-07T12:27:04;3.10;;;2.08;;
25249;SDS011;13201;51.148;13.738;2022-12-07T12:29:36;4.45;;;1.95;;
25249;SDS011;13201;51.148;13.738;2022-12-07T12:32:10;7.93;;;3.10;;
25249;SDS011;13201;51.148;13.738;2022-12-07T12:38:20;6.53;;;2.50;;
25249;SDS011;13201;51.148;13.738;2022-12-07T12:45:31;2.83;;;1.92;;
25249;SDS011;13201;51.148;13.738;2022-12-07T12:48:01;3.22;;;2.00;;
25249;SDS011;13201;51.148;13.738;2022-12-07T12:50:49;3.63;;;2.38;;
25249;SDS011;13201;51.148;13.738;2022-12-07T12:54:02;3.30;;;1.88;;
25249;SDS011;13201;51.148;13.738;2022-12-07T12:59:38;5.25;;;2.40;;
25249;SDS011;13201;51.148;13.738;2022-12-07T13:02:22;3.38;;;2.10;;
25249;SDS011;13201;51.148;13.738;2022-12-07T13:13:01;5.15;;;1.92;;
25249;SDS011;13201;51.148;13.738;2022-12-07T13:18:48;2.88;;;1.45;;
25249;SDS011;13201;51.148;13.738;2022-12-07T13:23:24;2.92;;;1.20;;
25249;SDS011;13201;51.148;13.738;2022-12-07T13:28:37;1.20;;;0.90;;
25249;SDS011;13201;51.148;13.738;2022-12-07T13:33:50;0.50;;;0.50;;
25249;SDS011;13201;51.148;13.738;2022-12-07T13:36:20;0.90;;;0.60;;
25249;SDS011;13201;51.148;13.738;2022-12-07T13:38:59;1.23;;;0.82;;
25249;SDS011;13201;51.148;13.738;2022-12-07T13:41:35;1.48;;;0.70;;
25249;SDS011;13201;51.148;13.738;2022-12-07T13:44:13;2.22;;;0.80;;
25249;SDS011;13201;51.148;13.738;2022-12-07T13:46:43;1.63;;;1.00;;
25249;SDS011;13201;51.148;13.738;2022-12-07T13:49:29;3.25;;;1.33;;
25249;SDS011;13201;51.148;13.738;2022-12-07T13:57:34;2.47;;;1.40;;
25249;SDS011;13201;51.148;13.738;2022-12-07T14:00:02;3.50;;;1.60;;
25249;SDS011;13201;51.148;13.738;2022-12-07T14:02:30;2.50;;;1.60;;
25249;SDS011;13201;51.148;13.738;2022-12-07T14:05:23;2.63;;;1.90;;
25249;SDS011;13201;51.148;13.738;2022-12-07T14:10:28;4.30;;;1.67;;
25249;SDS011;13201;51.148;13.738;2022-12-07T14:12:59;3.25;;;1.75;;
25249;SDS011;13201;51.148;13.738;2022-12-07T14:15:30;2.97;;;2.00;;
25249;SDS011;13201;51.148;13.738;2022-12-07T14:17:58;3.17;;;2.10;;
25249;SDS011;13201;51.148;13.738;2022-12-07T14:20:29;4.57;;;2.20;;
25249;SDS011;13201;51.148;13.738;2022-12-07T14:23:06;3.22;;;2.00;;
25249;SDS011;13201;51.148;13.738;2022-12-07T14:25:52;2.65;;;1.77;;
25249;SDS011;13201;51.148;13.738;2022-12-07T14:28:32;2.75;;;1.98;;
25249;SDS011;13201;51.148;13.738;2022-12-07T14:30:59;3.60;;;1.90;;
25249;SDS011;13201;51.148;13.738;2022-12-07T14:33:26;2.88;;;1.65;;
25249;SDS011;13201;51.148;13.738;2022-12-07T14:35:53;3.38;;;2.30;;
25249;SDS011;13201;51.148;13.738;2022-12-07T14:38:23;5.90;;;2.47;;
25249;SDS011;13201;51.148;13.738;2022-12-07T14:43:16;3.08;;;1.75;;
25249;SDS011;13201;51.148;13.738;2022-12-07T14:45:43;2.80;;;1.70;;
25249;SDS011;13201;51.148;13.738;2022-12-07T14:48:12;2.75;;;1.90;;
25249;SDS011;13201;51.148;13.738;2022-12-07T14:50:47;4.30;;;1.90;;
25249;SDS011;13201;51.148;13.738;2022-12-07T14:53:17;3.65;;;1.90;;
25249;SDS011;13201;51.148;13.738;2022-12-07T14:55:46;3.33;;;1.90;;
25249;SDS011;13201;51.148;13.738;2022-12-07T14:58:16;2.50;;;1.80;;
25249;SDS011;13201;51.148;13.738;2022-12-07T15:00:43;2.67;;;1.85;;
25249;SDS011;13201;51.148;13.738;2022-12-07T15:03:09;3.38;;;1.63;;
25249;SDS011;13201;51.148;13.738;2022-12-07T15:05:35;2.65;;;1.80;;
25249;SDS011;13201;51.148;13.738;2022-12-07T15:08:02;2.35;;;1.60;;
25249;SDS011;13201;51.148;13.738;2022-12-07T15:10:29;2.53;;;1.27;;
25249;SDS011;13201;51.148;13.738;2022-12-07T15:13:01;3.15;;;1.80;;
25249;SDS011;13201;51.148;13.738;2022-12-07T15:15:50;5.55;;;2.85;;
25249;SDS011;13201;51.148;13.738;2022-12-07T15:18:17;4.38;;;2.10;;
25249;SDS011;13201;51.148;13.738;2022-12-07T15:20:44;2.63;;;1.40;;
25249;SDS011;13201;51.148;13.738;2022-12-07T15:23:11;2.15;;;1.50;;
25249;SDS011;13201;51.148;13.738;2022-12-07T15:25:40;2.25;;;1.90;;
25249;SDS011;13201;51.148;13.738;2022-12-07T15:28:06;2.40;;;1.80;;
25249;SDS011;13201;51.148;13.738;2022-12-07T15:30:32;2.15;;;1.60;;
25249;SDS011;13201;51.148;13.738;2022-12-07T15:32:57;3.55;;;2.20;;
25249;SDS011;13201;51.148;13.738;2022-12-07T15:35:23;4.05;;;2.40;;
25249;SDS011;13201;51.148;13.738;2022-12-07T15:37:48;2.05;;;1.30;;
25249;SDS011;13201;51.148;13.738;2022-12-07T15:40:14;3.03;;;1.88;;
25249;SDS011;13201;51.148;13.738;2022-12-07T15:42:40;2.75;;;1.73;;
25249;SDS011;13201;51.148;13.738;2022-12-07T15:45:07;2.45;;;1.67;;
25249;SDS011;13201;51.148;13.738;2022-12-07T15:47:38;2.50;;;1.90;;
25249;SDS011;13201;51.148;13.738;2022-12-07T15:50:07;3.30;;;2.10;;
25249;SDS011;13201;51.148;13.738;2022-12-07T15:52:35;2.00;;;1.58;;
25249;SDS011;13201;51.148;13.738;2022-12-07T15:55:02;5.22;;;1.60;;
25249;SDS011;13201;51.148;13.738;2022-12-07T15:57:28;3.45;;;1.30;;
25249;SDS011;13201;51.148;13.738;2022-12-07T15:59:54;1.95;;;1.30;;
25249;SDS011;13201;51.148;13.738;2022-12-07T16:02:20;2.58;;;2.10;;
25249;SDS011;13201;51.148;13.738;2022-12-07T16:04:47;1.95;;;1.48;;
25249;SDS011;13201;51.148;13.738;2022-12-07T16:07:13;3.90;;;1.55;;
25249;SDS011;13201;51.148;13.738;2022-12-07T16:09:40;2.78;;;1.25;;
25249;SDS011;13201;51.148;13.738;2022-12-07T16:12:07;2.92;;;1.60;;
25249;SDS011;13201;51.148;13.738;2022-12-07T16:14:32;2.75;;;1.40;;
25249;SDS011;13201;51.148;13.738;2022-12-07T16:16:58;3.17;;;1.75;;
25249;SDS011;13201;51.148;13.738;2022-12-07T16:19:24;2.22;;;1.63;;
25249;SDS011;13201;51.148;13.738;2022-12-07T16:21:50;1.95;;;1.40;;
25249;SDS011;13201;51.148;13.738;2022-12-07T16:24:16;3.13;;;1.50;;
25249;SDS011;13201;51.148;13.738;2022-12-07T16:26:42;1.90;;;1.33;;
25249;SDS011;13201;51.148;13.738;2022-12-07T16:31:36;5.10;;;1.65;;
25249;SDS011;13201;51.148;13.738;2022-12-07T16:34:02;2.15;;;1.48;;
25249;SDS011;13201;51.148;13.738;2022-12-07T16:36:27;2.67;;;1.80;;
25249;SDS011;13201;51.148;13.738;2022-12-07T16:38:53;3.03;;;1.70;;
25249;SDS011;13201;51.148;13.738;2022-12-07T16:41:19;2.30;;;1.40;;
25249;SDS011;13201;51.148;13.738;2022-12-07T16:43:45;3.30;;;1.33;;
25249;SDS011;13201;51.148;13.738;2022-12-07T16:46:10;1.88;;;1.20;;
25249;SDS011;13201;51.148;13.738;2022-12-07T16:48:37;2.00;;;1.30;;
25249;SDS011;13201;51.148;13.738;2022-12-07T16:51:07;4.60;;;1.70;;
25249;SDS011;13201;51.148;13.738;2022-12-07T16:53:36;2.88;;;1.48;;
25249;SDS011;13201;51.148;13.738;2022-12-07T16:56:03;3.17;;;2.17;;
25249;SDS011;13201;51.148;13.738;2022-12-07T16:58:30;2.93;;;1.77;;
25249;SDS011;13201;51.148;13.738;2022-12-07T17:00:56;4.25;;;1.65;;
25249;SDS011;13201;51.148;13.738;2022-12-07T17:03:21;5.97;;;3.33;;
25249;SDS011;13201;51.148;13.738;2022-12-07T17:05:47;5.90;;;2.30;;
25249;SDS011;13201;51.148;13.738;2022-12-07T17:08:14;3.40;;;1.53;;
25249;SDS011;13201;51.148;13.738;2022-12-07T17:10:42;3.00;;;1.30;;
25249;SDS011;13201;51.148;13.738;2022-12-07T17:13:09;2.42;;;1.27;;
25249;SDS011;13201;51.148;13.738;2022-12-07T17:16:14;2.03;;;1.13;;
25249;SDS011;13201;51.148;13.738;2022-12-07T17:18:40;1.98;;;1.25;;
25249;SDS011;13201;51.148;13.738;2022-12-07T17:21:06;6.25;;;1.23;;
25249;SDS011;13201;51.148;13.738;2022-12-07T17:23:36;2.95;;;1.15;;
25249;SDS011;13201;51.148;13.738;2022-12-07T17:26:13;3.47;;;1.52;;
25249;SDS011;13201;51.148;13.738;2022-12-07T17:28:41;2.40;;;1.17;;
25249;SDS011;13201;51.148;13.738;2022-12-07T17:31:08;2.93;;;0.97;;
25249;SDS011;13201;51.148;13.738;2022-12-07T17:33:35;3.53;;;1.42;;
25249;SDS011;13201;51.148;13.738;2022-12-07T17:36:08;1.85;;;1.25;;
25249;SDS011;13201;51.148;13.738;2022-12-07T17:38:38;4.45;;;0.80;;
25249;SDS011;13201;51.148;13.738;2022-12-07T17:44:03;1.42;;;1.10;;
25249;SDS011;13201;51.148;13.738;2022-12-07T17:46:30;4.32;;;0.93;;
25249;SDS011;13201;51.148;13.738;2022-12-07T17:48:57;3.97;;;1.23;;
25249;SDS011;13201;51.148;13.738;2022-12-07T17:51:23;4.80;;;0.93;;
25249;SDS011;13201;51.148;13.738;2022-12-07T17:54:08;1.38;;;0.90;;
25249;SDS011;13201;51.148;13.738;2022-12-07T17:56:34;1.10;;;0.80;;
25249;SDS011;13201;51.148;13.738;2022-12-07T17:59:00;1.05;;;0.75;;
25249;SDS011;13201;51.148;13.738;2022-12-07T18:01:27;1.27;;;1.00;;
25249;SDS011;13201;51.148;13.738;2022-12-07T18:03:52;5.03;;;0.93;;
25249;SDS011;13201;51.148;13.738;2022-12-07T18:06:18;4.13;;;1.15;;
25249;SDS011;13201;51.148;13.738;2022-12-07T18:08:44;4.68;;;1.00;;
25249;SDS011;13201;51.148;13.738;2022-12-07T18:11:09;2.53;;;0.90;;
25249;SDS011;13201;51.148;13.738;2022-12-07T18:13:35;2.43;;;0.80;;
25249;SDS011;13201;51.148;13.738;2022-12-07T18:16:23;1.65;;;0.93;;
25249;SDS011;13201;51.148;13.738;2022-12-07T18:18:49;1.27;;;0.80;;